Norsol — LG7350 — position and weather

sailwx.info

Track history (hours):
 
Tides and Currents Weather Stations Pressure Air Temp Water Temp Dewpoint Dewpoint Depression Visibility Wind Speed Wind Dir Waves Ship Positions

Norsol

Last reported at 2017-Nov-16 09:04 UTC. Time now 2017-Dec-16 20:48 UTC.
Position N 69°10' E 016°11'.
Warning: this ship's position is 30 days out of date.

Length 11 m.

Type: Fishing. MMSI: 257313700.

Date/timePositionNaut miles runAvg speedWind from/ knotsBaromVisibWave heightAir tempDewpointWater temp
2017-Nov-16 09:04N 69°10' E 016°11'0 0.7
2017-Nov-16 08:59N 69°10' E 016°11'0 0.6
2017-Nov-16 08:29N 69°11' E 016°11'1 2.2
2017-Nov-16 08:00N 69°12' E 016°11'4 8.9
2017-Nov-16 07:30N 69°16' E 016°12'4 7.8
2017-Nov-16 07:00N 69°20' E 016°08'0 0.0
2017-Nov-16 06:29N 69°20' E 016°08'0 0.0
2017-Nov-16 05:59N 69°20' E 016°08'0 0.0
2017-Nov-16 05:29N 69°20' E 016°08'0 0.0
2017-Nov-16 04:59N 69°20' E 016°08'0 0.0
2017-Nov-16 04:29N 69°20' E 016°08'0 0.0
2017-Nov-16 03:59N 69°20' E 016°08'0 0.0
2017-Nov-16 03:29N 69°20' E 016°08'0 0.0
2017-Nov-16 02:59N 69°20' E 016°08'0 0.0
2017-Nov-16 02:29N 69°20' E 016°08'0 0.0
2017-Nov-16 01:59N 69°20' E 016°08'0 0.0
2017-Nov-16 01:29N 69°20' E 016°08'0 0.0
2017-Nov-16 00:59N 69°20' E 016°08'0 0.0
2017-Nov-16 00:29N 69°20' E 016°08'0 0.0
2017-Nov-15 23:59N 69°20' E 016°08'0 0.0
2017-Nov-15 23:29N 69°20' E 016°08'0 0.0
2017-Nov-15 22:59N 69°20' E 016°08'0 0.0
2017-Nov-15 22:29N 69°20' E 016°08'0 0.0
2017-Nov-15 21:59N 69°20' E 016°08'0 0.0
2017-Nov-15 21:29N 69°20' E 016°08'0 0.0
2017-Nov-15 20:59N 69°20' E 016°08'0 0.0
2017-Nov-15 20:29N 69°20' E 016°08'0 0.0
2017-Nov-15 19:59N 69°20' E 016°08'0 0.0
2017-Nov-15 19:29N 69°20' E 016°08'0 0.0
2017-Nov-15 18:59N 69°20' E 016°08'0 0.0
2017-Nov-15 18:29N 69°20' E 016°08'0 0.0
2017-Nov-15 17:59N 69°20' E 016°08'0 0.0
2017-Nov-15 17:29N 69°20' E 016°08'0 0.0
2017-Nov-15 16:59N 69°20' E 016°08'0 0.0
2017-Nov-15 16:29N 69°20' E 016°08'0 0.0
2017-Nov-15 15:59N 69°20' E 016°08'0 0.0
2017-Nov-15 15:29N 69°20' E 016°08'0 0.0
2017-Nov-15 14:59N 69°20' E 016°08'0 0.0
2017-Nov-15 14:29N 69°20' E 016°08'0 0.0
2017-Nov-15 13:59N 69°20' E 016°08'0 0.0
2017-Nov-15 13:29N 69°20' E 016°08'0 0.0
2017-Nov-15 12:59N 69°20' E 016°08'0 0.3
2017-Nov-15 12:29N 69°20' E 016°08'2 5.2
2017-Nov-15 12:00N 69°17' E 016°12'4 8.6
2017-Nov-15 11:29N 69°13' E 016°12'3 5.3
2017-Nov-15 11:00N 69°10' E 016°11'3 6.5
2017-Nov-15 10:29N 69°14' E 016°11'2 3.2
2017-Nov-15 10:00N 69°15' E 016°11'1 1.3
2017-Nov-15 09:30N 69°16' E 016°12'0 0.3
2017-Nov-15 09:00N 69°16' E 016°11'2 4.6
2017-Nov-15 08:30N 69°18' E 016°12'0 0.9
2017-Nov-15 08:00N 69°19' E 016°12'0 0.2
2017-Nov-15 07:30N 69°19' E 016°12'2 3.4
2017-Nov-15 07:01N 69°20' E 016°08'0 0.0
2017-Nov-15 06:31N 69°20' E 016°08'0 0.0
2017-Nov-15 06:01N 69°20' E 016°08'0 0.0
2017-Nov-15 05:31N 69°20' E 016°08'0 0.0
2017-Nov-15 05:01N 69°20' E 016°08'0 0.0
2017-Nov-15 04:28N 69°20' E 016°08'0 0.0
2017-Nov-15 03:58N 69°20' E 016°08'0 0.0
2017-Nov-15 03:31N 69°20' E 016°08'0 0.0
2017-Nov-15 03:01N 69°20' E 016°08'0 0.0
2017-Nov-15 02:31N 69°20' E 016°08'0 0.0
2017-Nov-15 02:01N 69°20' E 016°08'0 0.0
2017-Nov-15 01:31N 69°20' E 016°08'0 0.0
2017-Nov-15 01:01N 69°20' E 016°08'0 0.0
2017-Nov-15 00:31N 69°20' E 016°08'0 0.0
2017-Nov-15 00:01N 69°20' E 016°08'0 0.0
2017-Nov-14 23:31N 69°20' E 016°08'0 0.0
2017-Nov-14 23:01N 69°20' E 016°08'0 0.0
2017-Nov-14 22:28N 69°20' E 016°08'0 0.0
2017-Nov-14 22:01N 69°20' E 016°08'0 0.0
2017-Nov-14 21:31N 69°20' E 016°08'0 0.0
2017-Nov-14 21:01N 69°20' E 016°08'0 0.0
2017-Nov-14 20:31N 69°20' E 016°08'0 0.0
2017-Nov-14 20:01N 69°20' E 016°08'0 0.0
2017-Nov-14 19:28N 69°20' E 016°08'0 0.0
2017-Nov-14 19:01N 69°20' E 016°08'0 0.0
2017-Nov-14 18:31N 69°20' E 016°08'0 0.0
2017-Nov-14 17:58N 69°20' E 016°08'0 0.0
2017-Nov-14 17:31N 69°20' E 016°08'0 0.0
2017-Nov-14 16:58N 69°20' E 016°08'0 0.0
2017-Nov-14 16:28N 69°20' E 016°08'0 0.0
2017-Nov-14 16:01N 69°20' E 016°08'0 0.0
2017-Nov-14 15:28N 69°20' E 016°08'0 0.0
2017-Nov-14 15:01N 69°20' E 016°08'0 0.0
2017-Nov-14 14:28N 69°20' E 016°08'0 0.0
2017-Nov-14 14:01N 69°20' E 016°08'0 0.3
2017-Nov-14 13:28N 69°19' E 016°08'1 1.8
2017-Nov-14 13:00N 69°19' E 016°10'3 6.5
2017-Nov-14 12:30N 69°16' E 016°12'0 0.2
2017-Nov-14 12:00N 69°16' E 016°12'0 0.3
2017-Nov-14 11:30N 69°16' E 016°12'2 3.7
2017-Nov-14 11:00N 69°18' E 016°12'0 0.5
2017-Nov-14 10:30N 69°18' E 016°12'0 0.4
2017-Nov-14 10:00N 69°18' E 016°12'0 0.9
2017-Nov-14 09:30N 69°18' E 016°13'0 0.4
2017-Nov-14 09:00N 69°18' E 016°12'0 0.4
2017-Nov-14 08:30N 69°18' E 016°12'0 0.3
2017-Nov-14 08:00N 69°18' E 016°12'2 3.8
2017-Nov-14 07:29N 69°20' E 016°08'0 0.0
2017-Nov-14 06:59N 69°20' E 016°08'0 0.0
2017-Nov-14 06:29N 69°20' E 016°08'0 0.0
2017-Nov-14 05:59N 69°20' E 016°08'0 0.0
2017-Nov-14 05:29N 69°20' E 016°08'0 0.0
2017-Nov-14 04:59N 69°20' E 016°08'0 0.0
2017-Nov-14 04:29N 69°20' E 016°08'0 0.0
2017-Nov-14 03:59N 69°20' E 016°08'0 0.0
2017-Nov-14 03:29N 69°20' E 016°08'0 0.0
2017-Nov-14 02:59N 69°20' E 016°08'0 0.0
2017-Nov-14 02:29N 69°20' E 016°08'0 0.0
2017-Nov-14 01:59N 69°20' E 016°08'0 0.0
2017-Nov-14 01:29N 69°20' E 016°08'0 0.0
2017-Nov-14 00:59N 69°20' E 016°08'0 0.0
2017-Nov-14 00:29N 69°20' E 016°08'0 0.0
2017-Nov-13 23:59N 69°20' E 016°08'0 0.0
2017-Nov-13 23:29N 69°20' E 016°08'0 0.0
2017-Nov-13 22:59N 69°20' E 016°08'0 0.0
2017-Nov-13 22:29N 69°20' E 016°08'0 0.0
2017-Nov-13 21:59N 69°20' E 016°08'0 0.0
2017-Nov-13 02:00N 69°20' E 016°08'0 0.0
2017-Nov-13 01:30N 69°20' E 016°08'0 0.0
2017-Nov-13 01:00N 69°20' E 016°08'0 0.0
2017-Nov-13 00:30N 69°20' E 016°08'0 0.0
2017-Nov-13 00:00N 69°20' E 016°08'0 0.0
2017-Nov-12 23:30N 69°20' E 016°08'0 0.0
2017-Nov-12 23:00N 69°20' E 016°08'0 0.0
2017-Nov-12 22:30N 69°20' E 016°08'0 0.0
2017-Nov-12 22:00N 69°20' E 016°08'0 0.0
2017-Nov-12 21:30N 69°20' E 016°08'0 0.0
2017-Nov-12 21:00N 69°20' E 016°08'0 0.0
2017-Nov-12 20:30N 69°20' E 016°08'0 0.0
2017-Nov-12 20:00N 69°20' E 016°08'0 0.0
2017-Nov-12 19:30N 69°20' E 016°08'0 0.0
2017-Nov-12 19:00N 69°20' E 016°08'0 0.0
2017-Nov-12 18:30N 69°20' E 016°08'0 0.0
2017-Nov-12 18:00N 69°20' E 016°08'0 0.0
2017-Nov-12 17:30N 69°20' E 016°08'0 0.0
2017-Nov-12 17:00N 69°20' E 016°08'0 0.0
2017-Nov-12 16:30N 69°20' E 016°08'0 0.0
2017-Nov-12 16:00N 69°20' E 016°08'0 0.0
2017-Nov-12 15:30N 69°20' E 016°08'0 0.0
2017-Nov-12 15:00N 69°20' E 016°08'0 0.0
2017-Nov-12 14:30N 69°20' E 016°08'0 0.0
2017-Nov-12 14:00N 69°20' E 016°08'0 0.0
2017-Nov-12 13:30N 69°20' E 016°08'0 0.0
2017-Nov-12 13:00N 69°20' E 016°08'0 0.0
2017-Nov-12 12:30N 69°20' E 016°08'2 3.2
2017-Nov-12 12:00N 69°19' E 016°12'1 2.1
2017-Nov-12 11:29N 69°18' E 016°13'2 4.6
2017-Nov-12 10:59N 69°20' E 016°08'0 0.0
2017-Nov-12 10:29N 69°20' E 016°08'0 0.0
2017-Nov-12 09:59N 69°20' E 016°08'0 0.0
2017-Nov-12 09:29N 69°20' E 016°08'0 0.0
2017-Nov-12 08:59N 69°20' E 016°08'0 0.0
2017-Nov-12 08:26N 69°20' E 016°08'0 0.0
2017-Nov-12 07:59N 69°20' E 016°08'0 0.0
2017-Nov-12 07:29N 69°20' E 016°08'0 0.0
2017-Nov-12 06:59N 69°20' E 016°08'0 0.0
2017-Nov-12 06:29N 69°20' E 016°08'0 0.0
2017-Nov-12 05:59N 69°20' E 016°08'0 0.0
2017-Nov-12 05:29N 69°20' E 016°08'0 0.0
2017-Nov-12 04:59N 69°20' E 016°08'0 0.0
2017-Nov-12 04:29N 69°20' E 016°08'0 0.0
2017-Nov-12 03:59N 69°20' E 016°08'0 0.0
2017-Nov-12 03:29N 69°20' E 016°08'0 0.0
2017-Nov-12 02:59N 69°20' E 016°08'0 0.0
2017-Nov-12 02:29N 69°20' E 016°08'0 0.0
2017-Nov-12 01:59N 69°20' E 016°08'0 0.0
2017-Nov-12 01:29N 69°20' E 016°08'0 0.0
2017-Nov-12 00:59N 69°20' E 016°08'0 0.0
2017-Nov-12 00:29N 69°20' E 016°08'0 0.0
2017-Nov-11 23:59N 69°20' E 016°08'0 0.0
2017-Nov-11 23:29N 69°20' E 016°08'0 0.0
2017-Nov-11 22:59N 69°20' E 016°08'0 0.0
2017-Nov-11 22:29N 69°20' E 016°08'0 0.0
2017-Nov-11 21:59N 69°20' E 016°08'0 0.0
2017-Nov-11 21:29N 69°20' E 016°08'0 0.0
2017-Nov-11 20:59N 69°20' E 016°08'0 0.0
2017-Nov-11 20:29N 69°20' E 016°08'0 0.0
2017-Nov-11 19:59N 69°20' E 016°08'0 0.0
2017-Nov-11 19:29N 69°20' E 016°08'0 0.0
2017-Nov-11 18:59N 69°20' E 016°08'0 0.0
2017-Nov-11 18:29N 69°20' E 016°08'0 0.0
2017-Nov-11 17:59N 69°20' E 016°08'0 0.0
2017-Nov-11 17:29N 69°20' E 016°08'0 0.0
2017-Nov-11 16:59N 69°20' E 016°08'0 0.0
2017-Nov-11 16:29N 69°20' E 016°08'0 0.0
2017-Nov-11 15:59N 69°20' E 016°08'0 0.0
2017-Nov-11 15:29N 69°20' E 016°08'0 0.0
2017-Nov-11 14:59N 69°20' E 016°08'0 0.0
2017-Nov-11 14:29N 69°20' E 016°08'0 0.0
2017-Nov-11 13:59N 69°20' E 016°08'0 0.0
2017-Nov-11 13:29N 69°20' E 016°08'0 0.0
2017-Nov-11 12:59N 69°20' E 016°08'0 0.0
2017-Nov-11 12:29N 69°20' E 016°08'0 0.0
2017-Nov-11 11:59N 69°20' E 016°08'0 0.0
2017-Nov-11 11:29N 69°20' E 016°08'0 0.0
2017-Nov-11 10:59N 69°20' E 016°08'0 0.0
2017-Nov-11 10:29N 69°20' E 016°08'0 0.0
2017-Nov-11 09:59N 69°20' E 016°08'0 0.0
2017-Nov-11 09:29N 69°20' E 016°08'0 0.0
2017-Nov-11 08:59N 69°20' E 016°08'0 0.0
2017-Nov-11 08:29N 69°20' E 016°08'0 0.0
2017-Nov-11 07:59N 69°20' E 016°08'0 0.0
2017-Nov-11 07:29N 69°20' E 016°08'0 0.0
2017-Nov-11 06:59N 69°20' E 016°08'0 0.0
2017-Nov-11 06:29N 69°20' E 016°08'0 0.0
2017-Nov-11 05:59N 69°20' E 016°08'0 0.0
2017-Nov-11 05:29N 69°20' E 016°08'0 0.0
2017-Nov-11 04:59N 69°20' E 016°08'0 0.0
2017-Nov-11 04:29N 69°20' E 016°08'0 0.0
2017-Nov-11 03:59N 69°20' E 016°08'0 0.0
2017-Nov-11 03:29N 69°20' E 016°08'0 0.0
2017-Nov-11 02:59N 69°20' E 016°08'0 0.0
2017-Nov-11 02:29N 69°20' E 016°08'0 0.0
2017-Nov-11 01:56N 69°20' E 016°08'0 0.0
2017-Nov-11 01:29N 69°20' E 016°08'0 0.0
2017-Nov-11 00:59N 69°20' E 016°08'0 0.0
2017-Nov-11 00:29N 69°20' E 016°08'0 0.0
2017-Nov-10 23:59N 69°20' E 016°08'0 0.0
2017-Nov-10 23:29N 69°20' E 016°08'0 0.0
2017-Nov-10 22:59N 69°20' E 016°08'0 0.0
2017-Nov-10 22:29N 69°20' E 016°08'0 0.0
2017-Nov-10 21:59N 69°20' E 016°08'0 0.0
2017-Nov-10 21:29N 69°20' E 016°08'0 0.0
2017-Nov-10 20:59N 69°20' E 016°08'0 0.0
2017-Nov-10 20:29N 69°20' E 016°08'0 0.0
2017-Nov-10 19:59N 69°20' E 016°08'0 0.0
2017-Nov-10 19:29N 69°20' E 016°08'0 0.0
2017-Nov-10 18:59N 69°20' E 016°08'0 0.0
2017-Nov-10 18:29N 69°20' E 016°08'0 0.0
2017-Nov-10 17:59N 69°20' E 016°08'0 0.0
2017-Nov-10 17:29N 69°20' E 016°08'0 0.0
2017-Nov-10 16:59N 69°20' E 016°08'0 0.0
2017-Nov-10 16:29N 69°20' E 016°08'0 0.0
2017-Nov-10 15:59N 69°20' E 016°08'0 0.0
2017-Nov-10 15:29N 69°20' E 016°08'0 0.0
2017-Nov-10 14:59N 69°20' E 016°08'0 0.0
2017-Nov-10 14:26N 69°20' E 016°08'0 0.0
2017-Nov-10 13:59N 69°20' E 016°08'0 0.0
2017-Nov-10 13:29N 69°20' E 016°08'0 0.0
2017-Nov-10 12:59N 69°20' E 016°08'0 0.0
2017-Nov-10 12:29N 69°20' E 016°08'0 0.0
2017-Nov-10 11:59N 69°20' E 016°08'0 0.0
2017-Nov-10 11:29N 69°20' E 016°08'0 0.0
2017-Nov-10 10:59N 69°20' E 016°08'0 0.0
2017-Nov-10 10:29N 69°20' E 016°08'0 0.0
2017-Nov-10 09:59N 69°20' E 016°08'0 0.0
2017-Nov-10 09:29N 69°20' E 016°08'0 0.0
2017-Nov-10 08:59N 69°20' E 016°08'0 0.0
2017-Nov-10 08:29N 69°20' E 016°08'0 0.0
2017-Nov-10 07:59N 69°20' E 016°08'0 0.0
2017-Nov-10 07:29N 69°20' E 016°08'0 0.0
2017-Nov-10 06:59N 69°20' E 016°08'0 0.0
2017-Nov-10 06:29N 69°20' E 016°08'0 0.0
2017-Nov-10 05:59N 69°20' E 016°08'0 0.0
2017-Nov-10 05:29N 69°20' E 016°08'0 0.0
2017-Nov-10 04:59N 69°20' E 016°08'0 0.0
2017-Nov-10 04:26N 69°20' E 016°08'0 0.0
2017-Nov-10 03:59N 69°20' E 016°08'0 0.0
2017-Nov-10 03:29N 69°20' E 016°08'0 0.0
2017-Nov-10 02:59N 69°20' E 016°08'0 0.0
2017-Nov-10 02:29N 69°20' E 016°08'0 0.0
2017-Nov-10 01:59N 69°20' E 016°08'0 0.0
2017-Nov-10 01:29N 69°20' E 016°08'0 0.0
2017-Nov-10 00:59N 69°20' E 016°08'0 0.0
2017-Nov-10 00:29N 69°20' E 016°08'0 0.0
2017-Nov-09 23:59N 69°20' E 016°08'0 0.0
2017-Nov-09 23:29N 69°20' E 016°08'0 0.0
2017-Nov-09 22:59N 69°20' E 016°08'0 0.0
2017-Nov-09 22:29N 69°20' E 016°08'0 0.0
2017-Nov-09 21:59N 69°20' E 016°08'0 0.0
2017-Nov-09 21:29N 69°20' E 016°08'0 0.0
2017-Nov-09 20:59N 69°20' E 016°08'0 0.0
2017-Nov-09 20:29N 69°20' E 016°08'0 0.0
2017-Nov-09 19:59N 69°20' E 016°08'0 0.0
2017-Nov-09 19:29N 69°20' E 016°08'0 0.0
2017-Nov-09 18:59N 69°20' E 016°08'0 0.0
2017-Nov-09 18:29N 69°20' E 016°08'0 0.0
2017-Nov-09 17:59N 69°20' E 016°08'0 0.0
2017-Nov-09 17:29N 69°20' E 016°08'0 0.0
2017-Nov-09 16:59N 69°20' E 016°08'0 0.0
2017-Nov-09 16:29N 69°20' E 016°08'0 0.0
2017-Nov-09 15:59N 69°20' E 016°08'0 0.0
2017-Nov-09 15:29N 69°20' E 016°08'0 0.0
2017-Nov-09 14:59N 69°20' E 016°08'0 0.0
2017-Nov-09 14:29N 69°20' E 016°08'0 0.0
2017-Nov-09 13:59N 69°20' E 016°08'0 0.0
2017-Nov-09 13:29N 69°20' E 016°08'0 0.0
2017-Nov-09 12:59N 69°20' E 016°08'0 0.0
2017-Nov-09 12:29N 69°20' E 016°08'0 0.0
2017-Nov-09 11:59N 69°20' E 016°08'0 0.0
2017-Nov-09 11:29N 69°20' E 016°08'0 0.0
2017-Nov-09 10:59N 69°20' E 016°08'0 0.0
2017-Nov-09 10:29N 69°20' E 016°08'0 0.0
2017-Nov-09 09:59N 69°20' E 016°08'0 0.0
2017-Nov-09 09:29N 69°20' E 016°08'0 0.0
2017-Nov-09 08:59N 69°20' E 016°08'0 0.0
2017-Nov-09 08:29N 69°20' E 016°08'0 0.0
2017-Nov-09 07:59N 69°20' E 016°08'0 0.0
2017-Nov-09 07:29N 69°20' E 016°08'0 0.0
2017-Nov-09 06:59N 69°20' E 016°08'0 0.0
2017-Nov-09 06:29N 69°20' E 016°08'0 0.0
2017-Nov-09 05:59N 69°20' E 016°08'0 0.0
2017-Nov-09 05:29N 69°20' E 016°08'0 0.0
2017-Nov-09 04:59N 69°20' E 016°08'0 0.0
2017-Nov-09 04:29N 69°20' E 016°08'0 0.0
2017-Nov-09 03:59N 69°20' E 016°08'0 0.0
2017-Nov-09 03:29N 69°20' E 016°08'0 0.0
2017-Nov-09 02:59N 69°20' E 016°08'0 0.0
2017-Nov-09 02:29N 69°20' E 016°08'0 0.0
2017-Nov-09 01:59N 69°20' E 016°08'0 0.0
2017-Nov-09 01:29N 69°20' E 016°08'0 0.0
2017-Nov-09 00:59N 69°20' E 016°08'0 0.0
2017-Nov-09 00:29N 69°20' E 016°08'0 0.0
2017-Nov-08 23:56N 69°20' E 016°08'0 0.0
2017-Nov-08 23:29N 69°20' E 016°08'0 0.0
2017-Nov-08 22:59N 69°20' E 016°08'0 0.0
2017-Nov-08 22:29N 69°19' E 016°08'0 0.0
2017-Nov-08 21:59N 69°20' E 016°08'0 0.0
2017-Nov-08 21:29N 69°20' E 016°08'0 0.0
2017-Nov-08 20:59N 69°20' E 016°08'0 0.0
2017-Nov-08 20:29N 69°20' E 016°08'0 0.0
2017-Nov-08 19:59N 69°20' E 016°08'0 0.0
2017-Nov-08 19:29N 69°20' E 016°08'0 0.0
2017-Nov-08 18:59N 69°20' E 016°08'0 0.0
2017-Nov-08 18:29N 69°20' E 016°08'0 0.0
2017-Nov-08 17:59N 69°20' E 016°08'0 0.0
2017-Nov-08 17:29N 69°20' E 016°08'0 0.0
2017-Nov-08 16:59N 69°20' E 016°08'0 0.0
2017-Nov-08 16:29N 69°20' E 016°08'0 0.0
2017-Nov-08 15:59N 69°20' E 016°08'0 0.0
2017-Nov-08 15:29N 69°20' E 016°08'0 0.0
2017-Nov-08 14:59N 69°20' E 016°08'0 0.0
2017-Nov-08 14:29N 69°20' E 016°08'0 0.0
2017-Nov-08 13:47N 69°20' E 016°08'0 0.0
2017-Nov-08 13:29N 69°20' E 016°08'0 0.0
2017-Nov-08 12:35N 69°20' E 016°08'0 0.0
2017-Nov-08 12:26N 69°20' E 016°08'0 0.0
2017-Nov-08 11:47N 69°20' E 016°08'2 0.6
2017-Nov-08 09:05N 69°19' E 016°12'0 0.0
2017-Nov-08 09:00N 69°19' E 016°12'0 0.7
2017-Nov-08 08:30N 69°19' E 016°12'1 2.8
2017-Nov-08 08:00N 69°20' E 016°08'0 0.0
2017-Nov-08 07:30N 69°20' E 016°08'0 0.0
2017-Nov-08 07:00N 69°20' E 016°08'0 0.0
2017-Nov-08 06:30N 69°20' E 016°08'0 0.0
2017-Nov-08 06:00N 69°20' E 016°08'0 0.0
2017-Nov-08 05:30N 69°20' E 016°08'0 0.0
2017-Nov-08 05:00N 69°20' E 016°08'0 0.0
2017-Nov-08 04:30N 69°20' E 016°08'0 0.0
2017-Nov-08 04:00N 69°20' E 016°08'0 0.0
2017-Nov-08 03:30N 69°20' E 016°08'0 0.0
2017-Nov-08 02:57N 69°20' E 016°08'0 0.0
2017-Nov-08 02:30N 69°20' E 016°08'0 0.0
2017-Nov-08 02:00N 69°20' E 016°08'0 0.0
2017-Nov-08 01:30N 69°20' E 016°08'0 0.0
2017-Nov-08 01:00N 69°20' E 016°08'0 0.0
2017-Nov-08 00:27N 69°20' E 016°08'0 0.0
2017-Nov-07 22:36N 69°20' E 016°08'0 0.0
2017-Nov-07 22:30N 69°20' E 016°08'0 0.0
2017-Nov-07 22:00N 69°20' E 016°08'0 0.0
2017-Nov-07 21:30N 69°20' E 016°08'0 0.0
2017-Nov-07 21:00N 69°20' E 016°08'0 0.0
2017-Nov-07 20:30N 69°20' E 016°08'0 0.0
2017-Nov-07 20:00N 69°20' E 016°08'0 0.0
2017-Nov-07 19:30N 69°20' E 016°08'0 0.0
2017-Nov-07 19:00N 69°20' E 016°08'0 0.0
2017-Nov-07 18:27N 69°20' E 016°08'0 0.0
2017-Nov-07 18:00N 69°20' E 016°08'0 0.0
2017-Nov-07 17:30N 69°20' E 016°08'0 0.0
2017-Nov-07 17:00N 69°20' E 016°08'0 0.0
2017-Nov-07 16:30N 69°20' E 016°08'0 0.0
2017-Nov-07 16:00N 69°20' E 016°08'0 0.0
2017-Nov-07 15:30N 69°20' E 016°08'0 0.0
2017-Nov-07 15:00N 69°20' E 016°08'0 0.0
2017-Nov-07 14:30N 69°20' E 016°08'0 0.0
2017-Nov-07 14:00N 69°20' E 016°08'0 0.0
2017-Nov-07 13:30N 69°20' E 016°08'0 0.0
2017-Nov-07 13:00N 69°20' E 016°08'0 0.0
2017-Nov-07 12:30N 69°20' E 016°08'0 0.0
2017-Nov-07 12:00N 69°20' E 016°08'0 0.0
2017-Nov-07 11:27N 69°20' E 016°08'1 2.7
2017-Nov-07 11:00N 69°19' E 016°11'2 3.4
2017-Nov-07 10:30N 69°17' E 016°12'0 0.2
2017-Nov-07 10:00N 69°17' E 016°12'0 0.6
2017-Nov-07 09:30N 69°18' E 016°12'0 0.7
2017-Nov-07 08:59N 69°18' E 016°13'0 0.6
2017-Nov-07 08:30N 69°18' E 016°12'0 0.8
2017-Nov-07 07:59N 69°19' E 016°12'1 2.4
2017-Nov-07 07:30N 69°19' E 016°09'0 0.9
2017-Nov-07 06:59N 69°20' E 016°08'0 0.0
2017-Nov-07 06:29N 69°20' E 016°08'0 0.0
2017-Nov-07 05:59N 69°20' E 016°08'0 0.0
2017-Nov-07 05:26N 69°20' E 016°08'0 0.0
2017-Nov-07 04:59N 69°20' E 016°08'0 0.0
2017-Nov-07 04:29N 69°20' E 016°08'0 0.0
2017-Nov-07 03:59N 69°20' E 016°08'0 0.0
2017-Nov-07 03:29N 69°20' E 016°08'0 0.0
2017-Nov-07 02:59N 69°20' E 016°08'0 0.0
2017-Nov-07 02:29N 69°20' E 016°08'0 0.0
2017-Nov-07 01:59N 69°20' E 016°08'0 0.0
2017-Nov-07 01:29N 69°20' E 016°08'0 0.0
2017-Nov-07 00:59N 69°20' E 016°08'0 0.0
2017-Nov-07 00:29N 69°20' E 016°08'0 0.0
2017-Nov-06 23:59N 69°20' E 016°08'0 0.0
2017-Nov-06 23:29N 69°20' E 016°08'0 0.0
2017-Nov-06 22:59N 69°20' E 016°08'0 0.0
2017-Nov-06 22:29N 69°20' E 016°08'0 0.0
2017-Nov-06 21:59N 69°20' E 016°08'0 0.0
2017-Nov-06 21:29N 69°20' E 016°08'0 0.0
2017-Nov-06 20:59N 69°20' E 016°08'0 0.0
2017-Nov-06 20:29N 69°19' E 016°08'  
Track history (hours):
 
Tides and Currents Weather Stations Pressure Air Temp Water Temp Dewpoint Dewpoint Depression Visibility Wind Speed Wind Dir Waves Ship Positions

Norsol

Last reported at 2017-Nov-16 09:04 UTC. Time now 2017-Dec-16 20:48 UTC.
Position N 69°10' E 016°11'.
Warning: this ship's position is 30 days out of date.

Length 11 m.

Type: Fishing. MMSI: 257313700.

Date/timePositionNaut miles runAvg speedWind from/ knotsBaromVisibWave heightAir tempDewpointWater temp
2017-Nov-16 09:04N 69°10' E 016°11'0 0.7
2017-Nov-16 08:59N 69°10' E 016°11'0 0.6
2017-Nov-16 08:29N 69°11' E 016°11'1 2.2
2017-Nov-16 08:00N 69°12' E 016°11'4 8.9
2017-Nov-16 07:30N 69°16' E 016°12'4 7.8
2017-Nov-16 07:00N 69°20' E 016°08'0 0.0
2017-Nov-16 06:29N 69°20' E 016°08'0 0.0
2017-Nov-16 05:59N 69°20' E 016°08'0 0.0
2017-Nov-16 05:29N 69°20' E 016°08'0 0.0
2017-Nov-16 04:59N 69°20' E 016°08'0 0.0
2017-Nov-16 04:29N 69°20' E 016°08'0 0.0
2017-Nov-16 03:59N 69°20' E 016°08'0 0.0
2017-Nov-16 03:29N 69°20' E 016°08'0 0.0
2017-Nov-16 02:59N 69°20' E 016°08'0 0.0
2017-Nov-16 02:29N 69°20' E 016°08'0 0.0
2017-Nov-16 01:59N 69°20' E 016°08'0 0.0
2017-Nov-16 01:29N 69°20' E 016°08'0 0.0
2017-Nov-16 00:59N 69°20' E 016°08'0 0.0
2017-Nov-16 00:29N 69°20' E 016°08'0 0.0
2017-Nov-15 23:59N 69°20' E 016°08'0 0.0
2017-Nov-15 23:29N 69°20' E 016°08'0 0.0
2017-Nov-15 22:59N 69°20' E 016°08'0 0.0
2017-Nov-15 22:29N 69°20' E 016°08'0 0.0
2017-Nov-15 21:59N 69°20' E 016°08'0 0.0
2017-Nov-15 21:29N 69°20' E 016°08'0 0.0
2017-Nov-15 20:59N 69°20' E 016°08'0 0.0
2017-Nov-15 20:29N 69°20' E 016°08'0 0.0
2017-Nov-15 19:59N 69°20' E 016°08'0 0.0
2017-Nov-15 19:29N 69°20' E 016°08'0 0.0
2017-Nov-15 18:59N 69°20' E 016°08'0 0.0
2017-Nov-15 18:29N 69°20' E 016°08'0 0.0
2017-Nov-15 17:59N 69°20' E 016°08'0 0.0
2017-Nov-15 17:29N 69°20' E 016°08'0 0.0
2017-Nov-15 16:59N 69°20' E 016°08'0 0.0
2017-Nov-15 16:29N 69°20' E 016°08'0 0.0
2017-Nov-15 15:59N 69°20' E 016°08'0 0.0
2017-Nov-15 15:29N 69°20' E 016°08'0 0.0
2017-Nov-15 14:59N 69°20' E 016°08'0 0.0
2017-Nov-15 14:29N 69°20' E 016°08'0 0.0
2017-Nov-15 13:59N 69°20' E 016°08'0 0.0
2017-Nov-15 13:29N 69°20' E 016°08'0 0.0
2017-Nov-15 12:59N 69°20' E 016°08'0 0.3
2017-Nov-15 12:29N 69°20' E 016°08'2 5.2
2017-Nov-15 12:00N 69°17' E 016°12'4 8.6
2017-Nov-15 11:29N 69°13' E 016°12'3 5.3
2017-Nov-15 11:00N 69°10' E 016°11'3 6.5
2017-Nov-15 10:29N 69°14' E 016°11'2 3.2
2017-Nov-15 10:00N 69°15' E 016°11'1 1.3
2017-Nov-15 09:30N 69°16' E 016°12'0 0.3
2017-Nov-15 09:00N 69°16' E 016°11'2 4.6
2017-Nov-15 08:30N 69°18' E 016°12'0 0.9
2017-Nov-15 08:00N 69°19' E 016°12'0 0.2
2017-Nov-15 07:30N 69°19' E 016°12'2 3.4
2017-Nov-15 07:01N 69°20' E 016°08'0 0.0
2017-Nov-15 06:31N 69°20' E 016°08'0 0.0
2017-Nov-15 06:01N 69°20' E 016°08'0 0.0
2017-Nov-15 05:31N 69°20' E 016°08'0 0.0
2017-Nov-15 05:01N 69°20' E 016°08'0 0.0
2017-Nov-15 04:28N 69°20' E 016°08'0 0.0
2017-Nov-15 03:58N 69°20' E 016°08'0 0.0
2017-Nov-15 03:31N 69°20' E 016°08'0 0.0
2017-Nov-15 03:01N 69°20' E 016°08'0 0.0
2017-Nov-15 02:31N 69°20' E 016°08'0 0.0
2017-Nov-15 02:01N 69°20' E 016°08'0 0.0
2017-Nov-15 01:31N 69°20' E 016°08'0 0.0
2017-Nov-15 01:01N 69°20' E 016°08'0 0.0
2017-Nov-15 00:31N 69°20' E 016°08'0 0.0
2017-Nov-15 00:01N 69°20' E 016°08'0 0.0
2017-Nov-14 23:31N 69°20' E 016°08'0 0.0
2017-Nov-14 23:01N 69°20' E 016°08'0 0.0
2017-Nov-14 22:28N 69°20' E 016°08'0 0.0
2017-Nov-14 22:01N 69°20' E 016°08'0 0.0
2017-Nov-14 21:31N 69°20' E 016°08'0 0.0
2017-Nov-14 21:01N 69°20' E 016°08'0 0.0
2017-Nov-14 20:31N 69°20' E 016°08'0 0.0
2017-Nov-14 20:01N 69°20' E 016°08'0 0.0
2017-Nov-14 19:28N 69°20' E 016°08'0 0.0
2017-Nov-14 19:01N 69°20' E 016°08'0 0.0
2017-Nov-14 18:31N 69°20' E 016°08'0 0.0
2017-Nov-14 17:58N 69°20' E 016°08'0 0.0
2017-Nov-14 17:31N 69°20' E 016°08'0 0.0
2017-Nov-14 16:58N 69°20' E 016°08'0 0.0
2017-Nov-14 16:28N 69°20' E 016°08'0 0.0
2017-Nov-14 16:01N 69°20' E 016°08'0 0.0
2017-Nov-14 15:28N 69°20' E 016°08'0 0.0
2017-Nov-14 15:01N 69°20' E 016°08'0 0.0
2017-Nov-14 14:28N 69°20' E 016°08'0 0.0
2017-Nov-14 14:01N 69°20' E 016°08'0 0.3
2017-Nov-14 13:28N 69°19' E 016°08'1 1.8
2017-Nov-14 13:00N 69°19' E 016°10'3 6.5
2017-Nov-14 12:30N 69°16' E 016°12'0 0.2
2017-Nov-14 12:00N 69°16' E 016°12'0 0.3
2017-Nov-14 11:30N 69°16' E 016°12'2 3.7
2017-Nov-14 11:00N 69°18' E 016°12'0 0.5
2017-Nov-14 10:30N 69°18' E 016°12'0 0.4
2017-Nov-14 10:00N 69°18' E 016°12'0 0.9
2017-Nov-14 09:30N 69°18' E 016°13'0 0.4
2017-Nov-14 09:00N 69°18' E 016°12'0 0.4
2017-Nov-14 08:30N 69°18' E 016°12'0 0.3
2017-Nov-14 08:00N 69°18' E 016°12'2 3.8
2017-Nov-14 07:29N 69°20' E 016°08'0 0.0
2017-Nov-14 06:59N 69°20' E 016°08'0 0.0
2017-Nov-14 06:29N 69°20' E 016°08'0 0.0
2017-Nov-14 05:59N 69°20' E 016°08'0 0.0
2017-Nov-14 05:29N 69°20' E 016°08'0 0.0
2017-Nov-14 04:59N 69°20' E 016°08'0 0.0
2017-Nov-14 04:29N 69°20' E 016°08'0 0.0
2017-Nov-14 03:59N 69°20' E 016°08'0 0.0
2017-Nov-14 03:29N 69°20' E 016°08'0 0.0
2017-Nov-14 02:59N 69°20' E 016°08'0 0.0
2017-Nov-14 02:29N 69°20' E 016°08'0 0.0
2017-Nov-14 01:59N 69°20' E 016°08'0 0.0
2017-Nov-14 01:29N 69°20' E 016°08'0 0.0
2017-Nov-14 00:59N 69°20' E 016°08'0 0.0
2017-Nov-14 00:29N 69°20' E 016°08'0 0.0
2017-Nov-13 23:59N 69°20' E 016°08'0 0.0
2017-Nov-13 23:29N 69°20' E 016°08'0 0.0
2017-Nov-13 22:59N 69°20' E 016°08'0 0.0
2017-Nov-13 22:29N 69°20' E 016°08'0 0.0
2017-Nov-13 21:59N 69°20' E 016°08'0 0.0
2017-Nov-13 02:00N 69°20' E 016°08'0 0.0
2017-Nov-13 01:30N 69°20' E 016°08'0 0.0
2017-Nov-13 01:00N 69°20' E 016°08'0 0.0
2017-Nov-13 00:30N 69°20' E 016°08'0 0.0
2017-Nov-13 00:00N 69°20' E 016°08'0 0.0
2017-Nov-12 23:30N 69°20' E 016°08'0 0.0
2017-Nov-12 23:00N 69°20' E 016°08'0 0.0
2017-Nov-12 22:30N 69°20' E 016°08'0 0.0
2017-Nov-12 22:00N 69°20' E 016°08'0 0.0
2017-Nov-12 21:30N 69°20' E 016°08'0 0.0
2017-Nov-12 21:00N 69°20' E 016°08'0 0.0
2017-Nov-12 20:30N 69°20' E 016°08'0 0.0
2017-Nov-12 20:00N 69°20' E 016°08'0 0.0
2017-Nov-12 19:30N 69°20' E 016°08'0 0.0
2017-Nov-12 19:00N 69°20' E 016°08'0 0.0
2017-Nov-12 18:30N 69°20' E 016°08'0 0.0
2017-Nov-12 18:00N 69°20' E 016°08'0 0.0
2017-Nov-12 17:30N 69°20' E 016°08'0 0.0
2017-Nov-12 17:00N 69°20' E 016°08'0 0.0
2017-Nov-12 16:30N 69°20' E 016°08'0 0.0
2017-Nov-12 16:00N 69°20' E 016°08'0 0.0
2017-Nov-12 15:30N 69°20' E 016°08'0 0.0
2017-Nov-12 15:00N 69°20' E 016°08'0 0.0
2017-Nov-12 14:30N 69°20' E 016°08'0 0.0
2017-Nov-12 14:00N 69°20' E 016°08'0 0.0
2017-Nov-12 13:30N 69°20' E 016°08'0 0.0
2017-Nov-12 13:00N 69°20' E 016°08'0 0.0
2017-Nov-12 12:30N 69°20' E 016°08'2 3.2
2017-Nov-12 12:00N 69°19' E 016°12'1 2.1
2017-Nov-12 11:29N 69°18' E 016°13'2 4.6
2017-Nov-12 10:59N 69°20' E 016°08'0 0.0
2017-Nov-12 10:29N 69°20' E 016°08'0 0.0
2017-Nov-12 09:59N 69°20' E 016°08'0 0.0
2017-Nov-12 09:29N 69°20' E 016°08'0 0.0
2017-Nov-12 08:59N 69°20' E 016°08'0 0.0
2017-Nov-12 08:26N 69°20' E 016°08'0 0.0
2017-Nov-12 07:59N 69°20' E 016°08'0 0.0
2017-Nov-12 07:29N 69°20' E 016°08'0 0.0
2017-Nov-12 06:59N 69°20' E 016°08'0 0.0
2017-Nov-12 06:29N 69°20' E 016°08'0 0.0
2017-Nov-12 05:59N 69°20' E 016°08'0 0.0
2017-Nov-12 05:29N 69°20' E 016°08'0 0.0
2017-Nov-12 04:59N 69°20' E 016°08'0 0.0
2017-Nov-12 04:29N 69°20' E 016°08'0 0.0
2017-Nov-12 03:59N 69°20' E 016°08'0 0.0
2017-Nov-12 03:29N 69°20' E 016°08'0 0.0
2017-Nov-12 02:59N 69°20' E 016°08'0 0.0
2017-Nov-12 02:29N 69°20' E 016°08'0 0.0
2017-Nov-12 01:59N 69°20' E 016°08'0 0.0
2017-Nov-12 01:29N 69°20' E 016°08'0 0.0
2017-Nov-12 00:59N 69°20' E 016°08'0 0.0
2017-Nov-12 00:29N 69°20' E 016°08'0 0.0
2017-Nov-11 23:59N 69°20' E 016°08'0 0.0
2017-Nov-11 23:29N 69°20' E 016°08'0 0.0
2017-Nov-11 22:59N 69°20' E 016°08'0 0.0
2017-Nov-11 22:29N 69°20' E 016°08'0 0.0
2017-Nov-11 21:59N 69°20' E 016°08'0 0.0
2017-Nov-11 21:29N 69°20' E 016°08'0 0.0
2017-Nov-11 20:59N 69°20' E 016°08'0 0.0
2017-Nov-11 20:29N 69°20' E 016°08'0 0.0
2017-Nov-11 19:59N 69°20' E 016°08'0 0.0
2017-Nov-11 19:29N 69°20' E 016°08'0 0.0
2017-Nov-11 18:59N 69°20' E 016°08'0 0.0
2017-Nov-11 18:29N 69°20' E 016°08'0 0.0
2017-Nov-11 17:59N 69°20' E 016°08'0 0.0
2017-Nov-11 17:29N 69°20' E 016°08'0 0.0
2017-Nov-11 16:59N 69°20' E 016°08'0 0.0
2017-Nov-11 16:29N 69°20' E 016°08'0 0.0
2017-Nov-11 15:59N 69°20' E 016°08'0 0.0
2017-Nov-11 15:29N 69°20' E 016°08'0 0.0
2017-Nov-11 14:59N 69°20' E 016°08'0 0.0
2017-Nov-11 14:29N 69°20' E 016°08'0 0.0
2017-Nov-11 13:59N 69°20' E 016°08'0 0.0
2017-Nov-11 13:29N 69°20' E 016°08'0 0.0
2017-Nov-11 12:59N 69°20' E 016°08'0 0.0
2017-Nov-11 12:29N 69°20' E 016°08'0 0.0
2017-Nov-11 11:59N 69°20' E 016°08'0 0.0
2017-Nov-11 11:29N 69°20' E 016°08'0 0.0
2017-Nov-11 10:59N 69°20' E 016°08'0 0.0
2017-Nov-11 10:29N 69°20' E 016°08'0 0.0
2017-Nov-11 09:59N 69°20' E 016°08'0 0.0
2017-Nov-11 09:29N 69°20' E 016°08'0 0.0
2017-Nov-11 08:59N 69°20' E 016°08'0 0.0
2017-Nov-11 08:29N 69°20' E 016°08'0 0.0
2017-Nov-11 07:59N 69°20' E 016°08'0 0.0
2017-Nov-11 07:29N 69°20' E 016°08'0 0.0
2017-Nov-11 06:59N 69°20' E 016°08'0 0.0
2017-Nov-11 06:29N 69°20' E 016°08'0 0.0
2017-Nov-11 05:59N 69°20' E 016°08'0 0.0
2017-Nov-11 05:29N 69°20' E 016°08'0 0.0
2017-Nov-11 04:59N 69°20' E 016°08'0 0.0
2017-Nov-11 04:29N 69°20' E 016°08'0 0.0
2017-Nov-11 03:59N 69°20' E 016°08'0 0.0
2017-Nov-11 03:29N 69°20' E 016°08'0 0.0
2017-Nov-11 02:59N 69°20' E 016°08'0 0.0
2017-Nov-11 02:29N 69°20' E 016°08'0 0.0
2017-Nov-11 01:56N 69°20' E 016°08'0 0.0
2017-Nov-11 01:29N 69°20' E 016°08'0 0.0
2017-Nov-11 00:59N 69°20' E 016°08'0 0.0
2017-Nov-11 00:29N 69°20' E 016°08'0 0.0
2017-Nov-10 23:59N 69°20' E 016°08'0 0.0
2017-Nov-10 23:29N 69°20' E 016°08'0 0.0
2017-Nov-10 22:59N 69°20' E 016°08'0 0.0
2017-Nov-10 22:29N 69°20' E 016°08'0 0.0
2017-Nov-10 21:59N 69°20' E 016°08'0 0.0
2017-Nov-10 21:29N 69°20' E 016°08'0 0.0
2017-Nov-10 20:59N 69°20' E 016°08'0 0.0
2017-Nov-10 20:29N 69°20' E 016°08'0 0.0
2017-Nov-10 19:59N 69°20' E 016°08'0 0.0
2017-Nov-10 19:29N 69°20' E 016°08'0 0.0
2017-Nov-10 18:59N 69°20' E 016°08'0 0.0
2017-Nov-10 18:29N 69°20' E 016°08'0 0.0
2017-Nov-10 17:59N 69°20' E 016°08'0 0.0
2017-Nov-10 17:29N 69°20' E 016°08'0 0.0
2017-Nov-10 16:59N 69°20' E 016°08'0 0.0
2017-Nov-10 16:29N 69°20' E 016°08'0 0.0
2017-Nov-10 15:59N 69°20' E 016°08'0 0.0
2017-Nov-10 15:29N 69°20' E 016°08'0 0.0
2017-Nov-10 14:59N 69°20' E 016°08'0 0.0
2017-Nov-10 14:26N 69°20' E 016°08'0 0.0
2017-Nov-10 13:59N 69°20' E 016°08'0 0.0
2017-Nov-10 13:29N 69°20' E 016°08'0 0.0
2017-Nov-10 12:59N 69°20' E 016°08'0 0.0
2017-Nov-10 12:29N 69°20' E 016°08'0 0.0
2017-Nov-10 11:59N 69°20' E 016°08'0 0.0
2017-Nov-10 11:29N 69°20' E 016°08'0 0.0
2017-Nov-10 10:59N 69°20' E 016°08'0 0.0
2017-Nov-10 10:29N 69°20' E 016°08'0 0.0
2017-Nov-10 09:59N 69°20' E 016°08'0 0.0
2017-Nov-10 09:29N 69°20' E 016°08'0 0.0
2017-Nov-10 08:59N 69°20' E 016°08'0 0.0
2017-Nov-10 08:29N 69°20' E 016°08'0 0.0
2017-Nov-10 07:59N 69°20' E 016°08'0 0.0
2017-Nov-10 07:29N 69°20' E 016°08'0 0.0
2017-Nov-10 06:59N 69°20' E 016°08'0 0.0
2017-Nov-10 06:29N 69°20' E 016°08'0 0.0
2017-Nov-10 05:59N 69°20' E 016°08'0 0.0
2017-Nov-10 05:29N 69°20' E 016°08'0 0.0
2017-Nov-10 04:59N 69°20' E 016°08'0 0.0
2017-Nov-10 04:26N 69°20' E 016°08'0 0.0
2017-Nov-10 03:59N 69°20' E 016°08'0 0.0
2017-Nov-10 03:29N 69°20' E 016°08'0 0.0
2017-Nov-10 02:59N 69°20' E 016°08'0 0.0
2017-Nov-10 02:29N 69°20' E 016°08'0 0.0
2017-Nov-10 01:59N 69°20' E 016°08'0 0.0
2017-Nov-10 01:29N 69°20' E 016°08'0 0.0
2017-Nov-10 00:59N 69°20' E 016°08'0 0.0
2017-Nov-10 00:29N 69°20' E 016°08'0 0.0
2017-Nov-09 23:59N 69°20' E 016°08'0 0.0
2017-Nov-09 23:29N 69°20' E 016°08'0 0.0
2017-Nov-09 22:59N 69°20' E 016°08'0 0.0
2017-Nov-09 22:29N 69°20' E 016°08'0 0.0
2017-Nov-09 21:59N 69°20' E 016°08'0 0.0
2017-Nov-09 21:29N 69°20' E 016°08'0 0.0
2017-Nov-09 20:59N 69°20' E 016°08'0 0.0
2017-Nov-09 20:29N 69°20' E 016°08'0 0.0
2017-Nov-09 19:59N 69°20' E 016°08'0 0.0
2017-Nov-09 19:29N 69°20' E 016°08'0 0.0
2017-Nov-09 18:59N 69°20' E 016°08'0 0.0
2017-Nov-09 18:29N 69°20' E 016°08'0 0.0
2017-Nov-09 17:59N 69°20' E 016°08'0 0.0
2017-Nov-09 17:29N 69°20' E 016°08'0 0.0
2017-Nov-09 16:59N 69°20' E 016°08'0 0.0
2017-Nov-09 16:29N 69°20' E 016°08'0 0.0
2017-Nov-09 15:59N 69°20' E 016°08'0 0.0
2017-Nov-09 15:29N 69°20' E 016°08'0 0.0
2017-Nov-09 14:59N 69°20' E 016°08'0 0.0
2017-Nov-09 14:29N 69°20' E 016°08'0 0.0
2017-Nov-09 13:59N 69°20' E 016°08'0 0.0
2017-Nov-09 13:29N 69°20' E 016°08'0 0.0
2017-Nov-09 12:59N 69°20' E 016°08'0 0.0
2017-Nov-09 12:29N 69°20' E 016°08'0 0.0
2017-Nov-09 11:59N 69°20' E 016°08'0 0.0
2017-Nov-09 11:29N 69°20' E 016°08'0 0.0
2017-Nov-09 10:59N 69°20' E 016°08'0 0.0
2017-Nov-09 10:29N 69°20' E 016°08'0 0.0
2017-Nov-09 09:59N 69°20' E 016°08'0 0.0
2017-Nov-09 09:29N 69°20' E 016°08'0 0.0
2017-Nov-09 08:59N 69°20' E 016°08'0 0.0
2017-Nov-09 08:29N 69°20' E 016°08'0 0.0
2017-Nov-09 07:59N 69°20' E 016°08'0 0.0
2017-Nov-09 07:29N 69°20' E 016°08'0 0.0
2017-Nov-09 06:59N 69°20' E 016°08'0 0.0
2017-Nov-09 06:29N 69°20' E 016°08'0 0.0
2017-Nov-09 05:59N 69°20' E 016°08'0 0.0
2017-Nov-09 05:29N 69°20' E 016°08'0 0.0
2017-Nov-09 04:59N 69°20' E 016°08'0 0.0
2017-Nov-09 04:29N 69°20' E 016°08'0 0.0
2017-Nov-09 03:59N 69°20' E 016°08'0 0.0
2017-Nov-09 03:29N 69°20' E 016°08'0 0.0
2017-Nov-09 02:59N 69°20' E 016°08'0 0.0
2017-Nov-09 02:29N 69°20' E 016°08'0 0.0
2017-Nov-09 01:59N 69°20' E 016°08'0 0.0
2017-Nov-09 01:29N 69°20' E 016°08'0 0.0
2017-Nov-09 00:59N 69°20' E 016°08'0 0.0
2017-Nov-09 00:29N 69°20' E 016°08'0 0.0
2017-Nov-08 23:56N 69°20' E 016°08'0 0.0
2017-Nov-08 23:29N 69°20' E 016°08'0 0.0
2017-Nov-08 22:59N 69°20' E 016°08'0 0.0
2017-Nov-08 22:29N 69°19' E 016°08'0 0.0
2017-Nov-08 21:59N 69°20' E 016°08'0 0.0
2017-Nov-08 21:29N 69°20' E 016°08'0 0.0
2017-Nov-08 20:59N 69°20' E 016°08'0 0.0
2017-Nov-08 20:29N 69°20' E 016°08'0 0.0
2017-Nov-08 19:59N 69°20' E 016°08'0 0.0
2017-Nov-08 19:29N 69°20' E 016°08'0 0.0
2017-Nov-08 18:59N 69°20' E 016°08'0 0.0
2017-Nov-08 18:29N 69°20' E 016°08'0 0.0
2017-Nov-08 17:59N 69°20' E 016°08'0 0.0
2017-Nov-08 17:29N 69°20' E 016°08'0 0.0
2017-Nov-08 16:59N 69°20' E 016°08'0 0.0
2017-Nov-08 16:29N 69°20' E 016°08'0 0.0
2017-Nov-08 15:59N 69°20' E 016°08'0 0.0
2017-Nov-08 15:29N 69°20' E 016°08'0 0.0
2017-Nov-08 14:59N 69°20' E 016°08'0 0.0
2017-Nov-08 14:29N 69°20' E 016°08'0 0.0
2017-Nov-08 13:47N 69°20' E 016°08'0 0.0
2017-Nov-08 13:29N 69°20' E 016°08'0 0.0
2017-Nov-08 12:35N 69°20' E 016°08'0 0.0
2017-Nov-08 12:26N 69°20' E 016°08'0 0.0
2017-Nov-08 11:47N 69°20' E 016°08'2 0.6
2017-Nov-08 09:05N 69°19' E 016°12'0 0.0
2017-Nov-08 09:00N 69°19' E 016°12'0 0.7
2017-Nov-08 08:30N 69°19' E 016°12'1 2.8
2017-Nov-08 08:00N 69°20' E 016°08'0 0.0
2017-Nov-08 07:30N 69°20' E 016°08'0 0.0
2017-Nov-08 07:00N 69°20' E 016°08'0 0.0
2017-Nov-08 06:30N 69°20' E 016°08'0 0.0
2017-Nov-08 06:00N 69°20' E 016°08'0 0.0
2017-Nov-08 05:30N 69°20' E 016°08'0 0.0
2017-Nov-08 05:00N 69°20' E 016°08'0 0.0
2017-Nov-08 04:30N 69°20' E 016°08'0 0.0
2017-Nov-08 04:00N 69°20' E 016°08'0 0.0
2017-Nov-08 03:30N 69°20' E 016°08'0 0.0
2017-Nov-08 02:57N 69°20' E 016°08'0 0.0
2017-Nov-08 02:30N 69°20' E 016°08'0 0.0
2017-Nov-08 02:00N 69°20' E 016°08'0 0.0
2017-Nov-08 01:30N 69°20' E 016°08'0 0.0
2017-Nov-08 01:00N 69°20' E 016°08'0 0.0
2017-Nov-08 00:27N 69°20' E 016°08'0 0.0
2017-Nov-07 22:36N 69°20' E 016°08'0 0.0
2017-Nov-07 22:30N 69°20' E 016°08'0 0.0
2017-Nov-07 22:00N 69°20' E 016°08'0 0.0
2017-Nov-07 21:30N 69°20' E 016°08'0 0.0
2017-Nov-07 21:00N 69°20' E 016°08'0 0.0
2017-Nov-07 20:30N 69°20' E 016°08'0 0.0
2017-Nov-07 20:00N 69°20' E 016°08'0 0.0
2017-Nov-07 19:30N 69°20' E 016°08'0 0.0
2017-Nov-07 19:00N 69°20' E 016°08'0 0.0
2017-Nov-07 18:27N 69°20' E 016°08'0 0.0
2017-Nov-07 18:00N 69°20' E 016°08'0 0.0
2017-Nov-07 17:30N 69°20' E 016°08'0 0.0
2017-Nov-07 17:00N 69°20' E 016°08'0 0.0
2017-Nov-07 16:30N 69°20' E 016°08'0 0.0
2017-Nov-07 16:00N 69°20' E 016°08'0 0.0
2017-Nov-07 15:30N 69°20' E 016°08'0 0.0
2017-Nov-07 15:00N 69°20' E 016°08'0 0.0
2017-Nov-07 14:30N 69°20' E 016°08'0 0.0
2017-Nov-07 14:00N 69°20' E 016°08'0 0.0
2017-Nov-07 13:30N 69°20' E 016°08'0 0.0
2017-Nov-07 13:00N 69°20' E 016°08'0 0.0
2017-Nov-07 12:30N 69°20' E 016°08'0 0.0
2017-Nov-07 12:00N 69°20' E 016°08'0 0.0
2017-Nov-07 11:27N 69°20' E 016°08'1 2.7
2017-Nov-07 11:00N 69°19' E 016°11'2 3.4
2017-Nov-07 10:30N 69°17' E 016°12'0 0.2
2017-Nov-07 10:00N 69°17' E 016°12'0 0.6
2017-Nov-07 09:30N 69°18' E 016°12'0 0.7
2017-Nov-07 08:59N 69°18' E 016°13'0 0.6
2017-Nov-07 08:30N 69°18' E 016°12'0 0.8
2017-Nov-07 07:59N 69°19' E 016°12'1 2.4
2017-Nov-07 07:30N 69°19' E 016°09'0 0.9
2017-Nov-07 06:59N 69°20' E 016°08'0 0.0
2017-Nov-07 06:29N 69°20' E 016°08'0 0.0
2017-Nov-07 05:59N 69°20' E 016°08'0 0.0
2017-Nov-07 05:26N 69°20' E 016°08'0 0.0
2017-Nov-07 04:59N 69°20' E 016°08'0 0.0
2017-Nov-07 04:29N 69°20' E 016°08'0 0.0
2017-Nov-07 03:59N 69°20' E 016°08'0 0.0
2017-Nov-07 03:29N 69°20' E 016°08'0 0.0
2017-Nov-07 02:59N 69°20' E 016°08'0 0.0
2017-Nov-07 02:29N 69°20' E 016°08'0 0.0
2017-Nov-07 01:59N 69°20' E 016°08'0 0.0
2017-Nov-07 01:29N 69°20' E 016°08'0 0.0
2017-Nov-07 00:59N 69°20' E 016°08'0 0.0
2017-Nov-07 00:29N 69°20' E 016°08'0 0.0
2017-Nov-06 23:59N 69°20' E 016°08'0 0.0
2017-Nov-06 23:29N 69°20' E 016°08'0 0.0
2017-Nov-06 22:59N 69°20' E 016°08'0 0.0
2017-Nov-06 22:29N 69°20' E 016°08'0 0.0
2017-Nov-06 21:59N 69°20' E 016°08'0 0.0
2017-Nov-06 21:29N 69°20' E 016°08'0 0.0
2017-Nov-06 20:59N 69°20' E 016°08'0 0.0
2017-Nov-06 20:29N 69°19' E 016°08'  

Dump ship's entire track history